createdAt,value
2022-08-04T00:02:56.901Z,4.73
2022-08-04T00:06:03.901Z,3.30
2022-08-04T00:09:13.357Z,5.83
2022-08-04T00:12:18.008Z,3.40
2022-08-04T00:15:22.712Z,5.03
2022-08-04T00:18:33.467Z,7.30
2022-08-04T00:21:40.036Z,6.23
2022-08-04T00:24:44.849Z,4.37
2022-08-04T00:27:48.458Z,4.77
2022-08-04T00:30:52.640Z,7.67
2022-08-04T00:33:57.635Z,6.90
2022-08-04T00:37:00.449Z,4.63
2022-08-04T00:40:10.419Z,7.20
2022-08-04T00:43:20.588Z,5.10
2022-08-04T00:46:47.475Z,3.17
2022-08-04T00:50:04.629Z,4.33
2022-08-04T00:53:14.637Z,3.63
2022-08-04T00:56:40.356Z,8.00
2022-08-04T01:00:00.934Z,3.17
2022-08-04T01:03:15.331Z,6.83
2022-08-04T01:06:26.465Z,5.00
2022-08-04T01:09:42.531Z,4.13
2022-08-04T01:13:07.748Z,5.70
2022-08-04T01:16:18.550Z,4.70
2022-08-04T01:19:51.915Z,4.70
2022-08-04T01:23:27.098Z,8.27
2022-08-04T01:26:58.700Z,4.80
2022-08-04T01:30:03.381Z,3.53
2022-08-04T01:33:10.440Z,5.37
2022-08-04T01:36:14.345Z,5.57
2022-08-04T01:39:34.936Z,6.07
2022-08-04T01:42:38.302Z,4.80
2022-08-04T01:45:42.787Z,11.93
2022-08-04T01:48:48.452Z,5.83
2022-08-04T01:51:53.079Z,8.00
2022-08-04T01:54:56.579Z,5.57
2022-08-04T01:58:01.543Z,5.37
2022-08-04T02:01:08.655Z,5.43
2022-08-04T02:04:19.997Z,7.47
2022-08-04T02:07:38.747Z,14.50
2022-08-04T02:10:55.775Z,13.47
2022-08-04T02:14:07.756Z,6.57
2022-08-04T02:17:14.483Z,11.07
2022-08-04T02:20:24.212Z,7.53
2022-08-04T02:23:31.840Z,9.10
2022-08-04T02:26:36.512Z,9.83
2022-08-04T02:29:45.133Z,19.17
2022-08-04T02:32:53.277Z,14.17
2022-08-04T02:36:02.401Z,8.70
2022-08-04T02:39:07.811Z,10.47
2022-08-04T02:42:13.174Z,9.47
2022-08-04T02:45:20.357Z,6.53
2022-08-04T02:48:30.320Z,6.20
2022-08-04T02:51:36.799Z,8.60
2022-08-04T02:54:42.994Z,5.63
2022-08-04T02:57:50.068Z,4.67
2022-08-04T03:00:53.002Z,4.57
2022-08-04T03:04:24.376Z,3.80
2022-08-04T03:07:55.531Z,4.70
2022-08-04T03:11:15.279Z,4.33
2022-08-04T03:14:37.798Z,5.63
2022-08-04T03:18:09.814Z,5.43
2022-08-04T03:22:02.963Z,5.27
2022-08-04T03:25:30.268Z,3.83
2022-08-04T03:29:11.626Z,7.40
2022-08-04T03:32:50.880Z,5.00
2022-08-04T03:36:12.952Z,4.90
2022-08-04T03:39:40.758Z,5.20
2022-08-04T03:43:56.960Z,6.03
2022-08-04T03:47:12.966Z,7.13
2022-08-04T03:50:46.298Z,8.40
2022-08-04T03:54:09.045Z,7.83
2022-08-04T03:57:48.511Z,6.87
2022-08-04T04:01:03.644Z,4.43
2022-08-04T04:04:48.223Z,5.67
2022-08-04T04:08:23.845Z,5.87
2022-08-04T04:12:05.051Z,9.73
2022-08-04T04:15:30.179Z,6.83
2022-08-04T04:18:50.398Z,6.63
2022-08-04T04:22:23.308Z,6.57
2022-08-04T04:25:37.114Z,10.47
2022-08-04T04:29:01.562Z,17.17
2022-08-04T04:32:22.631Z,13.20
2022-08-04T04:35:34.717Z,7.40
2022-08-04T04:38:53.681Z,12.47
2022-08-04T04:42:17.296Z,14.50
2022-08-04T04:45:26.992Z,9.10
2022-08-04T04:48:43.519Z,6.43
2022-08-04T04:51:50.755Z,11.63
2022-08-04T04:55:01.561Z,7.80
2022-08-04T04:58:14.209Z,8.90
2022-08-04T05:01:43.567Z,14.40
2022-08-04T05:05:12.376Z,19.17
2022-08-04T05:08:45.011Z,16.13
2022-08-04T05:14:22.822Z,18.30
2022-08-04T05:15:47.554Z,17.13
2022-08-04T05:18:56.890Z,16.67
2022-08-04T05:22:11.180Z,13.57
2022-08-04T05:25:22.223Z,17.47
2022-08-04T05:28:31.377Z,8.90
2022-08-04T05:31:38.442Z,20.17
2022-08-04T05:34:45.188Z,25.97
2022-08-04T05:38:01.511Z,15.77
2022-08-04T05:41:06.676Z,15.93
2022-08-04T05:44:11.135Z,14.93
2022-08-04T05:47:16.872Z,12.73
2022-08-04T05:50:20.349Z,12.40
2022-08-04T05:53:25.733Z,13.27
2022-08-04T05:56:30.111Z,9.67
2022-08-04T05:59:35.307Z,13.10
2022-08-04T06:02:40.119Z,18.30
2022-08-04T06:05:44.712Z,11.87
2022-08-04T06:08:49.039Z,11.07
2022-08-04T06:12:00.799Z,12.87
2022-08-04T06:15:10.714Z,9.30
2022-08-04T06:19:56.570Z,9.10
2022-08-04T06:21:40.453Z,17.03
2022-08-04T06:24:48.120Z,18.43
2022-08-04T06:27:51.941Z,12.17
2022-08-04T06:30:58.516Z,13.43
2022-08-04T06:34:21.467Z,12.97
2022-08-04T06:37:42.740Z,7.87
2022-08-04T06:40:48.393Z,10.50
2022-08-04T06:43:52.700Z,11.27
2022-08-04T06:46:57.147Z,10.80
2022-08-04T06:51:24.435Z,9.07
2022-08-04T06:53:25.307Z,5.13
2022-08-04T06:56:31.944Z,12.23
2022-08-04T06:59:35.163Z,7.00
2022-08-04T07:02:44.039Z,5.70
2022-08-04T07:05:48.570Z,5.50
2022-08-04T07:08:52.197Z,8.53
2022-08-04T07:11:56.943Z,8.90
2022-08-04T07:15:00.451Z,9.70
2022-08-04T07:18:05.094Z,11.93
2022-08-04T07:21:08.691Z,10.10
2022-08-04T07:24:12.533Z,9.57
2022-08-04T07:27:18.392Z,10.30
2022-08-04T07:30:45.187Z,4.57
2022-08-04T07:34:16.823Z,6.47
2022-08-04T07:37:11.977Z,7.87
2022-08-04T07:40:15.393Z,5.83
2022-08-04T07:43:20.012Z,6.83
2022-08-04T07:46:23.071Z,6.03
2022-08-04T07:49:54.921Z,8.53
2022-08-04T07:53:15.346Z,7.07
2022-08-04T07:56:17.594Z,5.13
2022-08-04T07:59:21.806Z,4.50
2022-08-04T08:02:25.083Z,7.60
2022-08-04T08:05:29.182Z,5.10
2022-08-04T08:08:32.020Z,5.07
2022-08-04T08:12:35.506Z,4.97
2022-08-04T08:15:00.558Z,6.10
2022-08-04T08:18:03.262Z,8.87
2022-08-04T08:21:07.708Z,9.80
2022-08-04T08:24:12.788Z,12.87
2022-08-04T08:27:15.981Z,9.03
2022-08-04T08:30:20.148Z,5.97
2022-08-04T08:33:25.158Z,7.87
2022-08-04T08:36:33.996Z,11.07
2022-08-04T08:39:41.227Z,12.27
2022-08-04T08:44:05.722Z,6.23
2022-08-04T08:47:02.481Z,10.02
2022-08-04T08:50:28.937Z,4.75
2022-08-04T08:53:51.280Z,5.30
2022-08-04T08:57:10.359Z,8.73
2022-08-04T09:00:19.428Z,4.78
2022-08-04T09:03:42.763Z,4.63
2022-08-04T09:06:55.146Z,4.68
2022-08-04T09:10:08.110Z,6.20
2022-08-04T09:13:17.625Z,3.20
2022-08-04T09:16:25.607Z,5.38
2022-08-04T09:19:39.418Z,9.95
2022-08-04T09:22:50.597Z,6.22
2022-08-04T09:26:02.383Z,7.45
2022-08-04T09:29:12.244Z,9.98
2022-08-04T09:32:29.131Z,7.60
2022-08-04T09:35:43.466Z,5.50
2022-08-04T09:38:52.742Z,6.80
2022-08-04T09:42:05.570Z,6.40
2022-08-04T09:45:26.213Z,8.00
2022-08-04T09:48:38.058Z,5.05
2022-08-04T09:51:57.495Z,12.98
2022-08-04T09:55:10.506Z,5.53
2022-08-04T09:58:23.752Z,6.55
2022-08-04T10:01:30.080Z,5.25
2022-08-04T10:04:36.017Z,7.05
2022-08-04T10:08:16.277Z,3.97
2022-08-04T10:11:33.522Z,2.40
2022-08-04T10:14:41.565Z,1.80
2022-08-04T10:18:00.995Z,2.03
2022-08-04T10:21:15.371Z,10.73
2022-08-04T10:24:34.141Z,1.98
2022-08-04T10:27:44.627Z,1.88
2022-08-04T10:30:51.789Z,4.30
2022-08-04T10:34:01.667Z,2.80
2022-08-04T10:37:10.758Z,1.30
2022-08-04T10:40:40.910Z,3.08
2022-08-04T10:43:50.671Z,2.00
2022-08-04T10:46:58.217Z,4.65
2022-08-04T10:50:03.847Z,4.80
2022-08-04T10:53:13.012Z,3.05
2022-08-04T10:56:24.209Z,2.10
2022-08-04T10:59:32.456Z,2.60
2022-08-04T11:02:42.858Z,1.40
2022-08-04T11:05:50.205Z,2.90
2022-08-04T11:08:56.465Z,2.58
2022-08-04T11:12:08.499Z,3.88
2022-08-04T11:15:14.551Z,2.10
2022-08-04T11:18:26.454Z,8.52
2022-08-04T11:21:34.968Z,3.13
2022-08-04T11:24:45.482Z,2.53
2022-08-04T11:27:57.132Z,4.40
2022-08-04T11:31:06.148Z,3.55
2022-08-04T11:34:21.417Z,2.65
2022-08-04T11:37:26.900Z,2.72
2022-08-04T11:40:38.212Z,3.58
2022-08-04T11:44:00.670Z,2.47
2022-08-04T11:47:16.044Z,3.60
2022-08-04T11:50:23.022Z,3.38
2022-08-04T11:53:36.269Z,3.92
2022-08-04T11:56:40.917Z,3.88
2022-08-04T11:59:46.449Z,3.55
2022-08-04T12:03:07.782Z,1.60
2022-08-04T12:06:19.058Z,2.63
2022-08-04T12:09:32.730Z,3.25
2022-08-04T12:12:43.593Z,5.50
2022-08-04T12:15:56.611Z,5.57
2022-08-04T12:19:03.259Z,2.70
2022-08-04T12:22:12.773Z,2.53
2022-08-04T12:25:21.147Z,1.55
2022-08-04T12:28:46.714Z,2.25
2022-08-04T12:32:02.015Z,2.70
2022-08-04T12:35:14.302Z,1.50
2022-08-04T12:38:17.487Z,3.88
2022-08-04T12:41:25.527Z,2.03
2022-08-04T12:44:38.249Z,2.88
2022-08-04T12:47:45.050Z,4.10
2022-08-04T12:50:51.585Z,2.92
2022-08-04T12:53:54.308Z,2.63
2022-08-04T12:57:00.424Z,5.65
2022-08-04T13:00:03.404Z,1.88
2022-08-04T13:03:12.623Z,1.77
2022-08-04T13:06:21.126Z,2.92
2022-08-04T13:09:30.903Z,2.10
2022-08-04T13:12:35.292Z,2.75
2022-08-04T13:15:47.625Z,2.15
2022-08-04T13:19:05.326Z,4.68
2022-08-04T13:22:08.575Z,3.10
2022-08-04T13:26:41.672Z,3.13
2022-08-04T13:28:42.921Z,4.32
2022-08-04T13:31:52.592Z,3.67
2022-08-04T13:34:59.325Z,1.83
2022-08-04T13:38:03.386Z,1.50
2022-08-04T13:41:07.453Z,3.97
2022-08-04T13:44:17.947Z,2.78
2022-08-04T13:47:24.234Z,1.90
2022-08-04T13:50:30.204Z,1.80
2022-08-04T13:53:34.388Z,6.97
2022-08-04T13:56:41.549Z,5.40
2022-08-04T13:59:49.237Z,2.95
2022-08-04T14:02:59.988Z,1.80
2022-08-04T14:06:16.609Z,3.78
2022-08-04T14:09:21.790Z,1.55
2022-08-04T14:12:47.296Z,1.60
2022-08-04T14:16:01.175Z,1.88
2022-08-04T14:19:06.964Z,1.85
2022-08-04T14:22:29.213Z,3.13
2022-08-04T14:25:35.640Z,3.38
2022-08-04T14:29:25.475Z,1.27
2022-08-04T14:32:05.954Z,5.22
2022-08-04T14:35:16.644Z,2.35
2022-08-04T14:38:21.064Z,4.35
2022-08-04T14:41:26.153Z,2.25
2022-08-04T14:44:28.869Z,3.33
2022-08-04T14:47:52.119Z,8.20
2022-08-04T14:50:56.034Z,1.73
2022-08-04T14:54:03.975Z,3.30
2022-08-04T14:57:10.846Z,1.77
2022-08-04T15:00:24.901Z,1.55
2022-08-04T15:03:29.509Z,1.50
2022-08-04T15:06:33.676Z,3.35
2022-08-04T15:09:37.962Z,4.53
2022-08-04T15:12:41.644Z,2.67
2022-08-04T15:16:06.995Z,1.88
2022-08-04T15:19:09.225Z,1.88
2022-08-04T15:22:17.477Z,3.65
2022-08-04T15:25:21.955Z,4.20
2022-08-04T15:28:28.837Z,2.08
2022-08-04T15:32:06.047Z,2.33
2022-08-04T15:35:07.191Z,6.88
2022-08-04T15:38:15.445Z,6.97
2022-08-04T15:41:27.461Z,3.22
2022-08-04T15:45:21.228Z,1.40
2022-08-04T15:48:27.275Z,2.22
2022-08-04T15:51:31.834Z,1.70
2022-08-04T15:54:36.754Z,3.63
2022-08-04T15:58:02.240Z,2.20
2022-08-04T16:01:15.805Z,3.58
2022-08-04T16:04:23.416Z,5.00
2022-08-04T16:07:57.438Z,2.35
2022-08-04T16:11:00.228Z,1.98
2022-08-04T16:14:11.501Z,1.23
2022-08-04T16:17:19.164Z,1.75
2022-08-04T16:20:23.886Z,2.95
2022-08-04T16:23:57.999Z,2.05
2022-08-04T16:27:03.136Z,2.35
2022-08-04T16:30:13.738Z,1.17
2022-08-04T16:33:17.719Z,3.85
2022-08-04T16:36:56.793Z,1.48
2022-08-04T16:40:37.167Z,1.20
2022-08-04T16:43:41.468Z,5.90
2022-08-04T16:47:08.223Z,3.75
2022-08-04T16:50:09.247Z,1.20
2022-08-04T16:53:14.602Z,2.20
2022-08-04T16:56:36.939Z,2.88
2022-08-04T16:59:39.863Z,2.25
2022-08-04T17:02:46.165Z,1.90
2022-08-04T17:05:49.508Z,3.08
2022-08-04T17:08:52.407Z,2.70
2022-08-04T17:11:56.006Z,1.55
2022-08-04T17:14:58.772Z,9.82
2022-08-04T17:18:18.764Z,2.50
2022-08-04T17:21:24.939Z,1.75
2022-08-04T17:24:27.654Z,2.15
2022-08-04T17:28:08.750Z,4.03
2022-08-04T17:30:55.336Z,2.88
2022-08-04T17:34:02.147Z,2.05
2022-08-04T17:37:36.594Z,1.98
2022-08-04T17:40:27.947Z,2.35
2022-08-04T17:44:03.291Z,1.58
2022-08-04T17:47:12.658Z,2.00
2022-08-04T17:50:25.439Z,2.67
2022-08-04T17:53:53.042Z,3.03
2022-08-04T17:56:58.612Z,1.95
2022-08-04T18:00:01.984Z,2.00
2022-08-04T18:03:11.473Z,4.43
2022-08-04T18:06:21.325Z,2.53
2022-08-04T18:09:57.428Z,1.38
2022-08-04T18:12:48.776Z,2.03
2022-08-04T18:15:52.039Z,1.85
2022-08-04T18:19:11.213Z,2.30
2022-08-04T18:22:26.601Z,4.53
2022-08-04T18:25:51.799Z,2.42
2022-08-04T18:28:53.759Z,6.47
2022-08-04T18:31:56.493Z,3.72
2022-08-04T18:35:05.435Z,6.10
2022-08-04T18:38:23.577Z,1.63
2022-08-04T18:41:27.815Z,3.20
2022-08-04T18:44:31.216Z,6.18
2022-08-04T18:47:58.413Z,2.58
2022-08-04T18:51:10.227Z,7.35
2022-08-04T18:54:16.661Z,2.55
2022-08-04T18:57:32.518Z,5.38
2022-08-04T19:00:45.715Z,2.35
2022-08-04T19:03:54.330Z,7.28
2022-08-04T19:07:29.319Z,4.57
2022-08-04T19:10:27.304Z,4.22
2022-08-04T19:13:34.716Z,2.38
2022-08-04T19:16:40.755Z,2.83
2022-08-04T19:19:47.400Z,4.05
2022-08-04T19:24:10.656Z,6.13
2022-08-04T19:26:27.751Z,3.50
2022-08-04T19:29:37.696Z,7.18
2022-08-04T19:32:41.408Z,4.75
2022-08-04T19:35:51.548Z,10.23
2022-08-04T19:38:55.650Z,1.73
2022-08-04T19:42:06.678Z,3.63
2022-08-04T19:48:34.079Z,3.78
2022-08-04T19:51:38.878Z,8.23
2022-08-04T19:54:47.043Z,5.30
2022-08-04T19:57:53.531Z,4.95
2022-08-04T20:00:56.553Z,3.33
2022-08-04T20:04:08.868Z,2.85
2022-08-04T20:07:15.439Z,3.45
2022-08-04T20:10:18.724Z,3.25
2022-08-04T20:13:33.833Z,4.65
2022-08-04T20:16:40.299Z,3.33
2022-08-04T20:19:51.535Z,7.28
2022-08-04T20:22:54.524Z,6.30
2022-08-04T20:25:57.354Z,4.25
2022-08-04T20:29:01.664Z,9.20
2022-08-04T20:32:09.805Z,3.77
2022-08-04T20:35:15.759Z,5.13
2022-08-04T20:38:33.620Z,3.07
2022-08-04T20:41:37.139Z,4.77
2022-08-04T20:44:42.211Z,8.40
2022-08-04T20:47:53.209Z,8.30
2022-08-04T20:50:57.558Z,4.73
2022-08-04T20:54:00.326Z,4.97
2022-08-04T20:57:03.690Z,6.37
2022-08-04T21:00:10.002Z,4.47
2022-08-04T21:03:15.957Z,6.33
2022-08-04T21:06:19.049Z,5.50
2022-08-04T21:09:37.243Z,2.67
2022-08-04T21:12:41.490Z,4.13
2022-08-04T21:15:58.115Z,7.47
2022-08-04T21:19:04.154Z,3.17
2022-08-04T21:22:10.463Z,3.17
2022-08-04T21:25:16.348Z,3.63
2022-08-04T21:28:20.471Z,3.73
2022-08-04T21:31:25.930Z,15.07
2022-08-04T21:34:38.461Z,7.63
2022-08-04T21:37:58.116Z,7.20
2022-08-04T21:41:04.816Z,5.20
2022-08-04T21:44:09.312Z,4.03
2022-08-04T21:47:23.709Z,5.27
2022-08-04T21:50:30.649Z,4.40
2022-08-04T21:53:33.624Z,18.20
2022-08-04T21:56:37.991Z,4.80
2022-08-04T21:59:45.937Z,3.63
2022-08-04T22:02:53.551Z,6.87
2022-08-04T22:05:57.331Z,3.17
2022-08-04T22:09:00.795Z,4.57
2022-08-04T22:12:03.888Z,2.17
2022-08-04T22:15:23.145Z,5.70
2022-08-04T22:18:37.074Z,4.30
2022-08-04T22:21:45.521Z,9.47
2022-08-04T22:24:49.550Z,3.10
2022-08-04T22:28:03.564Z,4.03
2022-08-04T22:31:23.347Z,6.33
2022-08-04T22:34:30.495Z,2.57
2022-08-04T22:37:36.175Z,3.23
2022-08-04T22:40:47.819Z,3.30
2022-08-04T22:43:54.919Z,6.57
2022-08-04T22:46:57.941Z,2.90
2022-08-04T22:50:26.655Z,3.20
2022-08-04T22:53:26.057Z,4.50
2022-08-04T22:56:38.359Z,3.57
2022-08-04T22:59:43.390Z,2.97
2022-08-04T23:02:46.236Z,7.03
2022-08-04T23:05:53.066Z,5.50
2022-08-04T23:08:57.502Z,3.67
2022-08-04T23:12:23.736Z,3.60
2022-08-04T23:15:23.078Z,4.60
2022-08-04T23:18:26.750Z,4.47
2022-08-04T23:21:40.991Z,7.23
2022-08-04T23:24:50.252Z,4.77
2022-08-04T23:27:53.726Z,7.53
2022-08-04T23:30:57.598Z,6.37
2022-08-04T23:34:00.766Z,3.97
2022-08-04T23:37:04.973Z,2.97
2022-08-04T23:40:23.483Z,3.77
2022-08-04T23:43:49.627Z,3.13
2022-08-04T23:47:01.915Z,3.03
2022-08-04T23:50:05.455Z,3.87
2022-08-04T23:53:09.789Z,6.40
2022-08-04T23:56:21.538Z,3.33
2022-08-04T23:59:52.724Z,2.80
